• Join FlightAware (Why Join?)
  • Login
  • US Flag 
09:19PM EST


 

Airport Tracker/Info


-or-


 

Live Flight TrackerFlight Track Log ✈ KAP46 ✈ 10-Aug-2013 ✈ KMSS - KALB

Flight Track Log - Related Links

Times and Time Zones

All times are in EDT time to prevent confusion due to time zone crossing. See the KAP46 flight status page for this flight to view local times or setup timezone preferences in your user account.

Time Position Orientation Groundspeed Altitude Reporting Facility
EDT Latitude Longitude Course Direction KTS MPH feet Rate Location/Type
05:58PM 44.4283 -74.6203 160° South 150 173 8,500  Level Boston Center
05:59PM 44.3847 -74.5983 160° South 163 188 8,900 420 Climbing Boston Center
06:00PM 44.3436 -74.5708 154° Southeast 163 188 9,400 300 Climbing Boston Center
06:01PM 44.2961 -74.5517 164° South 168 193 9,500  Climbing Boston Center
06:02PM 44.2467 -74.5239 158° South 178 205 9,500  Level Boston Center
06:03PM 44.6978 -74.7238 160° South  Level FlightAware Approximate
06:03PM 44.1992 -74.5047 164° South 185 213 9,500  Level Boston Center
06:04PM 44.1517 -74.4800 160° South 185 213 9,500  Level Boston Center
06:05PM 44.1042 -74.4553 160° South 185 213 9,500  Level Boston Center
06:06PM 44.0522 -74.4333 163° South 185 213 9,500  Level Boston Center
06:07PM 44.0069 -74.4086 159° South 185 213 9,500  Level Boston Center
06:08PM 43.9572 -74.3869 163° South 185 213 9,500  Level Boston Center
06:09PM 43.9119 -74.3622 159° South 185 213 9,500  Level Boston Center
06:10PM 43.8644 -74.3378 160° South 185 213 9,500  Level Boston Center
06:11PM 43.8167 -74.3133 160° South 185 213 9,500  Level Boston Center
06:12PM 43.7692 -74.2886 159° South 185 213 9,500  Level Boston Center
06:13PM 43.7197 -74.2614 158° South 185 213 9,500  Level Boston Center
06:14PM 43.6722 -74.2369 160° South 185 213 9,600  Climbing Boston Center
06:14PM 43.6328 -74.2186 161° South 187 215 9,500 -300 Descending Boston Center
06:15PM 43.5997 -74.2033 161° South 190 219 9,200 -420 Descending Boston Center
06:16PM 43.5686 -74.1881 160° South 185 213 9,000 -300 Descending Boston Center
06:17PM 43.5128 -74.1606 160° South 190 219 8,800 -300 Descending Boston Center
06:18PM 43.4611 -74.1364 161° South 190 219 8,400 -420 Descending Boston Center
06:19PM 43.4136 -74.1150 162° South 200 230 8,100 -540 Descending Boston Center
06:20PM 43.3700 -74.0967 163° South 202 232 7,500 -600 Descending Boston Center
06:20PM 43.3203 -74.0725 161° South 206 237 7,100 -540 Descending Boston Center
06:21PM 43.2686 -74.0483 161° South 197 227 6,500 -600 Descending Boston Center
06:22PM 43.2125 -74.0297 166° South 191 220 6,000 -480 Descending Boston Center
06:23PM 43.1711 -74.0117 162° South 197 227 5,700 -420 Descending Boston Center
06:24PM 43.1506 -73.9967 152° Southeast 201 231 5,400 -360 Descending Boston Center
06:25PM 43.0842 -73.9639 160° South 201 231 5,100 -360 Descending Boston Center
06:26PM 43.0386 -73.9428 161° South 201 231 4,700 -480 Descending Boston Center
06:27PM 42.9847 -73.9158 160° South 201 231 4,200 -360 Descending Boston Center
06:28PM 42.9497 -73.8953 157° South 196 226 4,000 -300 Descending Boston Center
06:29PM 42.8983 -73.8403 142° Southeast 186 214 3,600 -180 Descending Boston Center
06:30PM 42.8575 -73.7683 128° Southeast 178 205 3,600 -180 Level Boston Center
06:31PM 42.8183 -73.7281 143° Southeast 184 212 3,200 -540 Descending Boston Center
06:32PM 42.7811 -73.6906 144° Southeast 149 171 2,600 -780 Descending Boston Center
06:33PM 42.7519 -73.7011 195° South 113 130 1,700 -780 Descending Boston Center
06:34PM 42.7494 -73.7436 265° West 92 106 1,100 -600 Descending Boston Center
06:35PM 42.7511 -73.7747 274° West 102 117 600  Descending Boston Center
06:37PM 42.7333 -73.8000 170° South  Level FlightAware Approximate
06:44PM 42.7491 -73.8020 170° South  Level Estimated
06:45PM 42.7491 -73.8020 170° South  Level Estimated
06:46PM 42.7491 -73.8020 170° South  Level Estimated
06:58PM 42.7603 -73.8653 289° West 98 113 1,900  Level Boston Center
06:59PM 42.7725 -73.9025 294° West 102 117 2,400 480 Climbing Boston Center
07:00PM 42.7992 -73.9172 338° Northwest 115 132 3,000 540 Climbing Boston Center
07:01PM 42.8303 -73.9322 341° North 122 140 3,600 540 Climbing Boston Center
07:02PM 42.8636 -73.9497 339° North 126 145 4,100 480 Climbing Boston Center
07:03PM 42.8989 -73.9592 349° North 129 148 4,600 540 Climbing Boston Center
07:04PM 42.9339 -73.9772 339° North 131 151 5,200 480 Climbing Boston Center
07:05PM 42.9672 -73.9922 342° North 128 147 5,700 540 Climbing Boston Center
07:06PM 43.0086 -74.0044 348° North 132 152 6,300 360 Climbing Boston Center
07:07PM 43.0439 -74.0225 339° North 138 159 6,500 60 Climbing Boston Center
07:08PM 43.0853 -74.0406 342° North 158 182 6,500 -60 Level Boston Center
07:10PM 43.1289 -74.0561 345° North 157 181 6,400 -60 Descending Boston Center
07:11PM 43.1639 -74.0711 343° North 146 168 6,400  Level Boston Center
07:12PM 43.2097 -74.0894 344° North 151 174 6,400  Level Boston Center
07:13PM 43.2447 -74.1047 342° North 146 168 6,400  Level Boston Center
07:14PM 43.2883 -74.1231 343° North 146 168 6,400  Level Boston Center
07:15PM 43.3236 -74.1411 340° North 146 168 6,400  Level Boston Center
07:16PM 43.3711 -74.1594 344° North 152 175 6,400  Level Boston Center
07:17PM 43.4125 -74.1808 339° North 152 175 6,500  Climbing Boston Center
07:18PM 43.4519 -74.1933 347° North 147 169 6,500  Level Boston Center
07:19PM 43.4911 -74.2144 339° North 147 169 6,500 -120 Level Boston Center
07:20PM 43.5347 -74.2300 346° North 147 169 6,300 -300 Descending Boston Center
07:21PM 43.5781 -74.2486 343° North 152 175 6,000 -180 Descending Boston Center
07:22PM 43.6153 -74.2669 340° North 152 175 6,000  Level Boston Center
07:23PM 43.6569 -74.2825 345° North 152 175 6,000  Level Boston Center
07:24PM 43.6983 -74.2981 345° North 152 175 6,000  Level Boston Center
07:25PM 43.7375 -74.3164 341° North 147 169 6,000  Level Boston Center
07:26PM 43.7769 -74.3322 344° North 147 169 6,000  Level Boston Center
07:27PM 43.8183 -74.3536 340° North 147 169 6,000  Level Boston Center
07:28PM 43.8575 -74.3692 344° North 147 169 6,000  Level Boston Center
07:29PM 43.8969 -74.3850 344° North 147 169 6,000  Level Boston Center
07:30PM 43.9361 -74.4036 341° North 147 169 6,000  Level Boston Center
07:31PM 43.9756 -74.4192 344° North 147 169 6,000  Level Boston Center
07:32PM 44.0147 -74.4350 344° North 147 169 6,000  Level Boston Center
07:33PM 44.0542 -74.4536 341° North 147 169 6,000  Level Boston Center
07:34PM 44.0933 -74.4694 344° North 147 169 6,000  Level Boston Center
07:35PM 44.1325 -74.4908 339° North 147 169 6,000  Level Boston Center
07:36PM 44.1719 -74.5039 347° North 147 169 6,000  Level Boston Center
07:37PM 44.2133 -74.5228 342° North 147 169 6,000  Level Boston Center
07:38PM 44.2506 -74.5383 343° North 147 169 6,000  Level Boston Center
07:39PM 44.2897 -74.5572 341° North 147 169 6,000  Level Boston Center
07:40PM 44.3292 -74.5731 344° North 147 169 6,000  Level Boston Center
07:41PM 44.3683 -74.5892 344° North 147 169 6,000  Level Boston Center
07:42PM 44.4078 -74.6050 344° North 147 169 6,000  Level Boston Center